Time;durP1;ratioP1;P1;durP2;ratioP2;P2;SDS_P1;SDS_P2;PMS_P1;PMS_P2;Temp;Humidity;BMP_temperature;BMP_pressure;BME280_temperature;BME280_humidity;BME280_pressure;Samples;Min_cycle;Max_cycle;Signal;HPM_P1;HPM_P2
2022/07/24 00:00:21;;;;;;;5.63;5.13;;;27.30;52.10;;;;;;5052281;28;20470;-42
2022/07/24 00:02:47;;;;;;;6.18;5.25;;;27.30;51.90;;;;;;5053895;28;20063;-43
2022/07/24 00:05:12;;;;;;;5.47;4.72;;;27.30;51.80;;;;;;5047508;28;20044;-42
2022/07/24 00:07:38;;;;;;;5.65;5.15;;;27.30;51.70;;;;;;5051902;28;20600;-45
2022/07/24 00:10:05;;;;;;;7.28;4.97;;;27.30;51.70;;;;;;5048510;28;20025;-42
2022/07/24 00:12:31;;;;;;;5.85;4.68;;;27.20;51.50;;;;;;5051583;28;20121;-42
2022/07/24 00:14:57;;;;;;;4.85;4.38;;;27.30;51.60;;;;;;5050764;28;20025;-45
2022/07/24 00:17:22;;;;;;;6.22;4.90;;;27.20;51.60;;;;;;5049293;28;20086;-42
2022/07/24 00:19:48;;;;;;;6.18;4.93;;;27.20;51.60;;;;;;5050096;28;20067;-44
2022/07/24 00:22:14;;;;;;;7.10;5.57;;;27.20;51.70;;;;;;5047277;28;20102;-45
2022/07/24 00:24:40;;;;;;;6.07;5.30;;;27.20;51.80;;;;;;5051480;28;20036;-45
2022/07/24 00:27:05;;;;;;;6.22;4.88;;;27.20;51.80;;;;;;5052215;28;20048;-49
2022/07/24 00:29:31;;;;;;;6.53;5.45;;;27.30;51.90;;;;;;5051276;28;20478;-41
2022/07/24 00:31:57;;;;;;;5.00;4.38;;;27.30;51.80;;;;;;5051348;28;20028;-41
2022/07/24 00:34:22;;;;;;;7.75;5.15;;;27.30;51.80;;;;;;5051862;28;20593;-41
2022/07/24 00:36:48;;;;;;;6.60;4.88;;;27.30;51.70;;;;;;5050565;28;20079;-43
2022/07/24 00:39:14;;;;;;;6.55;5.45;;;27.40;51.80;;;;;;5048746;28;20025;-41
2022/07/24 00:41:39;;;;;;;6.28;5.03;;;27.40;51.80;;;;;;5051361;28;20114;-51
2022/07/24 00:44:08;;;;;;;6.38;5.50;;;27.40;51.80;;;;;;5051626;28;20040;-42
2022/07/24 00:46:35;;;;;;;5.93;5.30;;;27.40;51.90;;;;;;5049792;28;20025;-42
2022/07/24 00:49:04;;;;;;;6.45;5.10;;;27.40;51.90;;;;;;5049456;28;20525;-42
2022/07/24 00:51:29;;;;;;;6.38;5.28;;;27.40;51.90;;;;;;5051646;28;20049;-41
2022/07/24 00:53:55;;;;;;;6.18;4.80;;;27.40;52.00;;;;;;5050566;28;20041;-42
2022/07/24 00:56:21;;;;;;;6.22;5.18;;;27.40;52.10;;;;;;5052632;28;20025;-42
2022/07/24 00:58:47;;;;;;;6.07;5.22;;;27.40;52.10;;;;;;5052244;28;20029;-41
2022/07/24 01:01:14;;;;;;;5.43;4.85;;;27.40;52.10;;;;;;5051570;28;20029;-41
2022/07/24 01:03:40;;;;;;;5.55;4.85;;;27.50;52.10;;;;;;5050976;28;20056;-51
2022/07/24 01:06:06;;;;;;;7.10;5.07;;;27.40;52.10;;;;;;5051374;28;20060;-41
2022/07/24 01:08:34;;;;;;;6.50;5.80;;;27.50;52.00;;;;;;5046338;28;20056;-41
2022/07/24 01:11:03;;;;;;;5.53;4.88;;;27.40;51.90;;;;;;5049023;28;20121;-41
2022/07/24 01:13:29;;;;;;;7.05;4.95;;;27.40;51.90;;;;;;5052205;28;20025;-42
2022/07/24 01:15:55;;;;;;;5.80;5.03;;;27.40;52.00;;;;;;5048546;28;20148;-50
2022/07/24 01:18:20;;;;;;;5.40;4.90;;;27.40;52.10;;;;;;5050692;28;20037;-41
2022/07/24 01:20:47;;;;;;;7.05;5.20;;;27.40;52.00;;;;;;5050255;28;20033;-42
2022/07/24 01:23:13;;;;;;;11.77;5.30;;;27.40;51.90;;;;;;5051025;28;20063;-41
2022/07/24 01:25:43;;;;;;;6.72;5.57;;;27.40;51.90;;;;;;5050801;28;20060;-50
2022/07/24 01:28:08;;;;;;;5.63;4.90;;;27.40;51.90;;;;;;5045666;28;20120;-42
2022/07/24 01:30:34;;;;;;;7.00;5.20;;;27.40;52.00;;;;;;5048818;28;20123;-41
2022/07/24 01:33:00;;;;;;;5.35;4.38;;;27.40;51.90;;;;;;5049548;28;20082;-45
2022/07/24 01:35:26;;;;;;;7.32;5.10;;;27.40;51.80;;;;;;5050787;28;20025;-42
2022/07/24 01:37:52;;;;;;;5.95;4.68;;;27.30;51.70;;;;;;5049895;28;20585;-42
2022/07/24 01:40:19;;;;;;;6.45;4.75;;;27.00;51.90;;;;;;5050202;28;20048;-42
2022/07/24 01:42:44;;;;;;;7.35;4.70;;;26.80;52.30;;;;;;5050537;28;20470;-41
2022/07/24 01:45:10;;;;;;;6.13;4.75;;;26.60;52.30;;;;;;5050760;28;20044;-42
2022/07/24 01:47:36;;;;;;;7.75;5.10;;;26.60;52.60;;;;;;5045503;28;20032;-41
2022/07/24 01:50:02;;;;;;;5.90;5.15;;;26.50;52.90;;;;;;5050214;28;20039;-41
2022/07/24 01:52:28;;;;;;;6.35;5.50;;;26.50;53.20;;;;;;5050876;28;20385;-43
2022/07/24 01:54:54;;;;;;;6.55;5.40;;;26.40;53.20;;;;;;5049656;28;20025;-41
2022/07/24 01:57:19;;;;;;;6.10;5.47;;;26.40;53.30;;;;;;5053712;28;20544;-41
2022/07/24 01:59:45;;;;;;;6.07;5.22;;;26.30;53.30;;;;;;5049940;28;20060;-42
2022/07/24 02:02:11;;;;;;;5.53;4.93;;;26.30;53.30;;;;;;5050631;28;20033;-44
2022/07/24 02:04:36;;;;;;;7.35;5.00;;;26.30;53.60;;;;;;5049440;28;20470;-42
2022/07/24 02:07:02;;;;;;;7.68;5.28;;;26.30;53.70;;;;;;5051350;28;20051;-42
2022/07/24 02:09:28;;;;;;;7.35;5.05;;;26.20;53.90;;;;;;5049728;28;20094;-41
2022/07/24 02:11:54;;;;;;;6.68;4.80;;;26.20;53.90;;;;;;5050131;28;20090;-44
2022/07/24 02:14:20;;;;;;;5.85;4.88;;;26.20;53.90;;;;;;5050922;28;20124;-44
2022/07/24 02:16:46;;;;;;;5.40;4.63;;;26.20;53.90;;;;;;5047855;28;20033;-45
2022/07/24 02:19:11;;;;;;;6.60;5.00;;;26.20;53.90;;;;;;5049770;28;20492;-45
2022/07/24 02:21:37;;;;;;;6.20;5.03;;;26.20;53.80;;;;;;5041582;28;20483;-42
2022/07/24 02:24:03;;;;;;;6.60;5.15;;;26.10;53.80;;;;;;5049650;28;20035;-41
2022/07/24 02:26:29;;;;;;;8.60;5.28;;;26.10;54.00;;;;;;5050673;28;20037;-43
2022/07/24 02:28:55;;;;;;;5.95;4.85;;;26.10;54.00;;;;;;5048702;28;20075;-43
2022/07/24 02:31:21;;;;;;;7.97;5.00;;;26.10;54.10;;;;;;5049746;28;20049;-41
2022/07/24 02:33:47;;;;;;;6.50;5.47;;;26.10;54.10;;;;;;5049666;28;20036;-43
2022/07/24 02:36:13;;;;;;;8.68;5.50;;;26.10;54.20;;;;;;5049049;28;20033;-43
2022/07/24 02:38:38;;;;;;;6.20;5.20;;;26.00;54.20;;;;;;5056511;28;20032;-42
2022/07/24 02:41:04;;;;;;;6.00;4.95;;;26.00;54.40;;;;;;5053441;28;20029;-41
2022/07/24 02:43:30;;;;;;;7.20;5.80;;;25.90;54.50;;;;;;5053862;28;20024;-42
2022/07/24 02:45:55;;;;;;;5.97;5.35;;;25.90;54.70;;;;;;5052144;28;20052;-47
2022/07/24 02:48:21;;;;;;;6.95;5.70;;;25.90;54.80;;;;;;5052472;28;20359;-44
2022/07/24 02:50:47;;;;;;;6.53;5.45;;;25.80;54.90;;;;;;5053034;28;20037;-51
2022/07/24 02:53:13;;;;;;;7.65;5.50;;;25.80;55.00;;;;;;5052172;28;20036;-42
2022/07/24 02:55:38;;;;;;;6.35;5.00;;;25.80;55.00;;;;;;5052421;28;20028;-42
2022/07/24 02:58:04;;;;;;;7.05;5.05;;;25.80;54.70;;;;;;5059462;28;20024;-42
2022/07/24 03:00:30;;;;;;;5.30;4.80;;;25.80;54.80;;;;;;5053109;28;20021;-45
2022/07/24 03:02:56;;;;;;;6.25;5.03;;;25.80;54.80;;;;;;5052951;28;20363;-42
2022/07/24 03:05:22;;;;;;;7.35;5.20;;;25.70;54.90;;;;;;5053899;28;20394;-42
2022/07/24 03:07:48;;;;;;;6.30;5.07;;;25.70;55.10;;;;;;5052908;28;20053;-54
2022/07/24 03:10:15;;;;;;;6.57;5.47;;;25.60;55.10;;;;;;5053695;28;20071;-42
2022/07/24 03:12:41;;;;;;;6.40;5.25;;;25.70;55.20;;;;;;5050636;28;20128;-41
2022/07/24 03:15:07;;;;;;;6.18;5.43;;;25.70;55.30;;;;;;5052667;28;20140;-42
2022/07/24 03:17:33;;;;;;;10.13;6.90;;;25.70;55.30;;;;;;5051275;28;20508;-42
2022/07/24 03:19:59;;;;;;;7.22;5.32;;;25.70;55.20;;;;;;5052409;28;20099;-42
2022/07/24 03:22:25;;;;;;;5.80;5.18;;;25.70;55.20;;;;;;5053194;28;20032;-42
2022/07/24 03:24:50;;;;;;;5.50;5.00;;;25.60;55.30;;;;;;5052205;28;20036;-42
2022/07/24 03:27:16;;;;;;;7.00;5.72;;;25.50;55.50;;;;;;5053321;28;20052;-41
2022/07/24 03:29:41;;;;;;;7.85;5.30;;;25.50;55.60;;;;;;5050942;28;20039;-42
2022/07/24 03:32:07;;;;;;;6.28;5.68;;;25.50;55.60;;;;;;5052096;28;20102;-41
2022/07/24 03:34:33;;;;;;;7.57;5.53;;;25.40;55.70;;;;;;5053199;28;20042;-44
2022/07/24 03:36:58;;;;;;;6.07;5.45;;;25.50;55.80;;;;;;5051828;28;20371;-42
2022/07/24 03:39:24;;;;;;;6.25;5.43;;;25.50;55.80;;;;;;5052048;28;20021;-41
2022/07/24 03:41:50;;;;;;;7.90;5.85;;;25.50;55.60;;;;;;5052103;28;20087;-52
2022/07/24 03:44:15;;;;;;;6.20;4.90;;;25.50;55.60;;;;;;5058656;28;20029;-44
2022/07/24 03:46:41;;;;;;;6.05;5.30;;;25.50;55.30;;;;;;5045725;28;20030;-47
2022/07/24 03:49:07;;;;;;;6.78;5.65;;;25.50;55.20;;;;;;5051370;28;20021;-42
2022/07/24 03:51:34;;;;;;;7.70;5.47;;;25.50;55.20;;;;;;5052959;28;20045;-42
2022/07/24 03:54:01;;;;;;;7.10;5.03;;;25.50;55.20;;;;;;5056465;28;20400;-41
2022/07/24 03:56:28;;;;;;;7.50;4.80;;;25.40;55.30;;;;;;5052540;28;20033;-43
2022/07/24 03:58:54;;;;;;;8.10;6.10;;;25.40;55.50;;;;;;5053611;28;20025;-43
2022/07/24 04:01:20;;;;;;;7.55;5.75;;;25.30;55.50;;;;;;5052505;28;20036;-44
2022/07/24 04:03:46;;;;;;;6.45;5.60;;;25.30;55.70;;;;;;5047995;28;20040;-46
2022/07/24 04:06:11;;;;;;;7.78;5.95;;;25.30;55.90;;;;;;5046543;28;20457;-42
2022/07/24 04:08:37;;;;;;;8.68;4.70;;;25.30;56.00;;;;;;5051741;28;20097;-48
2022/07/24 04:11:03;;;;;;;8.15;5.78;;;25.20;56.10;;;;;;5051231;28;20474;-41
2022/07/24 04:13:30;;;;;;;7.63;6.13;;;25.20;56.20;;;;;;5051786;28;20025;-43
2022/07/24 04:15:56;;;;;;;7.35;6.03;;;25.20;56.30;;;;;;5049334;28;20444;-41
2022/07/24 04:18:22;;;;;;;6.97;5.78;;;25.30;56.50;;;;;;5049570;28;20025;-48
2022/07/24 04:20:48;;;;;;;7.07;5.75;;;25.20;56.50;;;;;;5056265;28;20108;-51
2022/07/24 04:23:14;;;;;;;7.75;6.10;;;25.20;56.60;;;;;;5051217;28;20090;-41
2022/07/24 04:25:40;;;;;;;8.10;5.90;;;25.20;56.60;;;;;;5051759;28;20028;-43
2022/07/24 04:28:05;;;;;;;7.38;5.65;;;25.00;56.80;;;;;;5050438;28;20025;-43
2022/07/24 04:30:31;;;;;;;7.65;5.57;;;25.10;56.60;;;;;;5052416;28;20044;-41
2022/07/24 04:32:57;;;;;;;6.10;5.40;;;25.20;56.50;;;;;;5051288;28;20029;-41
2022/07/24 04:35:23;;;;;;;6.93;5.15;;;25.20;56.50;;;;;;5050346;28;20060;-43
2022/07/24 04:37:49;;;;;;;8.20;5.85;;;25.20;56.50;;;;;;5051830;28;20025;-51
2022/07/24 04:40:14;;;;;;;6.70;5.68;;;25.20;56.40;;;;;;5050371;28;20347;-41
2022/07/24 04:42:40;;;;;;;6.00;5.05;;;25.20;56.20;;;;;;5051585;28;20033;-46
2022/07/24 04:45:08;;;;;;;6.28;5.45;;;25.20;56.10;;;;;;5033862;28;20036;-46
2022/07/24 04:47:34;;;;;;;7.15;5.70;;;25.20;56.40;;;;;;5049308;28;20064;-42
2022/07/24 04:50:00;;;;;;;7.65;5.20;;;25.20;56.90;;;;;;5050518;28;20490;-43
2022/07/24 04:52:25;;;;;;;6.63;5.57;;;25.10;56.90;;;;;;5048162;28;20121;-44
2022/07/24 04:54:51;;;;;;;7.05;5.97;;;25.20;57.10;;;;;;5050903;28;20044;-51
2022/07/24 04:57:17;;;;;;;7.68;5.88;;;25.20;57.10;;;;;;5051785;28;20446;-41
2022/07/24 04:59:42;;;;;;;7.50;6.40;;;25.20;57.20;;;;;;5051103;28;20403;-42
2022/07/24 05:02:08;;;;;;;9.80;6.00;;;25.20;56.90;;;;;;5050354;28;20032;-44
2022/07/24 05:04:34;;;;;;;6.75;6.05;;;25.20;56.90;;;;;;5051776;28;20033;-44
2022/07/24 05:07:00;;;;;;;10.02;6.18;;;25.20;57.00;;;;;;5050630;28;20128;-42
2022/07/24 05:09:27;;;;;;;7.18;6.00;;;25.20;57.00;;;;;;5048690;28;20025;-41
2022/07/24 05:11:52;;;;;;;8.43;5.63;;;25.20;57.20;;;;;;5050906;28;20039;-54
2022/07/24 05:14:18;;;;;;;9.70;5.82;;;25.20;57.40;;;;;;5057514;28;20599;-43
2022/07/24 05:16:43;;;;;;;7.90;5.82;;;25.20;57.60;;;;;;5048919;28;20029;-43
2022/07/24 05:19:09;;;;;;;8.40;6.78;;;25.20;57.60;;;;;;5050253;28;20104;-43
2022/07/24 05:21:35;;;;;;;7.63;6.45;;;25.20;57.60;;;;;;5051559;28;20111;-44
2022/07/24 05:24:01;;;;;;;9.18;6.22;;;25.20;57.50;;;;;;5050424;28;20059;-43
2022/07/24 05:26:31;;;;;;;7.43;6.00;;;25.20;57.30;;;;;;5048084;28;20029;-42
2022/07/24 05:29:01;;;;;;;9.93;6.72;;;25.20;57.30;;;;;;5047744;28;20057;-47
2022/07/24 05:31:27;;;;;;;9.00;5.80;;;25.20;57.40;;;;;;5051005;28;20462;-41
2022/07/24 05:33:53;;;;;;;6.95;6.05;;;25.20;57.50;;;;;;5051434;28;20079;-50
2022/07/24 05:36:19;;;;;;;7.57;6.55;;;25.20;57.60;;;;;;5050777;28;20032;-44
2022/07/24 05:38:45;;;;;;;7.68;6.40;;;25.30;57.80;;;;;;5047564;28;20465;-41
2022/07/24 05:41:12;;;;;;;10.48;7.05;;;25.30;57.80;;;;;;5045014;28;20431;-43
2022/07/24 05:43:38;;;;;;;8.27;6.75;;;25.30;57.60;;;;;;5051012;28;20041;-43
2022/07/24 05:46:04;;;;;;;11.95;6.85;;;25.30;57.70;;;;;;5048528;28;20032;-42
2022/07/24 05:48:30;;;;;;;8.25;6.68;;;25.30;57.80;;;;;;5050371;28;20032;-45
2022/07/24 05:50:56;;;;;;;10.55;7.88;;;25.30;58.00;;;;;;5050212;28;20036;-54
2022/07/24 05:53:22;;;;;;;8.60;6.78;;;25.30;58.20;;;;;;5050928;28;20040;-43
2022/07/24 05:55:48;;;;;;;9.35;7.05;;;25.30;58.30;;;;;;5050548;28;20075;-45
2022/07/24 05:58:14;;;;;;;10.25;6.95;;;25.30;58.20;;;;;;5048215;28;20596;-43
2022/07/24 06:00:40;;;;;;;7.60;6.60;;;25.30;58.20;;;;;;5050809;28;20072;-42
2022/07/24 06:03:06;;;;;;;8.45;7.07;;;25.40;59.10;;;;;;5050187;28;20049;-42
2022/07/24 06:05:31;;;;;;;7.53;6.72;;;25.40;59.60;;;;;;5050734;28;20025;-42
2022/07/24 06:07:57;;;;;;;7.72;6.35;;;25.50;59.70;;;;;;5050574;28;20494;-51
2022/07/24 06:10:23;;;;;;;9.77;6.75;;;25.50;59.80;;;;;;5051305;28;20040;-45
2022/07/24 06:12:48;;;;;;;8.63;6.90;;;25.50;59.60;;;;;;5052700;28;20470;-46
2022/07/24 06:15:14;;;;;;;9.00;7.25;;;25.50;59.40;;;;;;5052634;28;20064;-45
2022/07/24 06:17:40;;;;;;;9.23;7.50;;;25.50;59.10;;;;;;5052085;28;20032;-42
2022/07/24 06:20:07;;;;;;;8.40;6.95;;;25.60;59.50;;;;;;5053857;28;20102;-42
2022/07/24 06:22:33;;;;;;;11.45;6.88;;;25.60;59.90;;;;;;5054208;28;20120;-43
2022/07/24 06:24:58;;;;;;;8.65;6.63;;;25.50;60.10;;;;;;5053173;28;20096;-51
2022/07/24 06:27:24;;;;;;;9.20;7.45;;;25.60;59.90;;;;;;5052843;28;20025;-42
2022/07/24 06:29:49;;;;;;;10.10;7.63;;;25.60;59.90;;;;;;5049509;28;20061;-41
2022/07/24 06:32:15;;;;;;;9.70;7.40;;;25.60;60.10;;;;;;5044204;28;20055;-43
2022/07/24 06:34:41;;;;;;;9.35;7.68;;;25.60;59.90;;;;;;5053101;28;20039;-44
2022/07/24 06:37:06;;;;;;;10.27;7.20;;;25.60;60.00;;;;;;5052405;28;20069;-43
2022/07/24 06:39:32;;;;;;;9.05;7.63;;;25.70;60.00;;;;;;5052613;28;20079;-47
2022/07/24 06:41:58;;;;;;;9.48;7.30;;;25.80;60.10;;;;;;5051635;28;20051;-52
2022/07/24 06:44:23;;;;;;;8.55;6.53;;;25.80;59.70;;;;;;5052642;28;20021;-42
2022/07/24 06:46:50;;;;;;;7.78;6.90;;;25.80;59.70;;;;;;5048622;28;20077;-41
2022/07/24 06:49:15;;;;;;;11.05;7.25;;;25.90;59.80;;;;;;5051803;28;20029;-42
2022/07/24 06:51:41;;;;;;;10.70;7.47;;;25.90;59.30;;;;;;5052694;28;20402;-46
2022/07/24 06:54:06;;;;;;;7.65;6.85;;;26.00;59.10;;;;;;5051946;28;20044;-45
2022/07/24 06:56:33;;;;;;;11.35;7.78;;;26.00;59.30;;;;;;5052672;28;20029;-46
2022/07/24 06:58:59;;;;;;;10.25;8.00;;;26.00;59.40;;;;;;5051880;28;20037;-52
2022/07/24 07:01:25;;;;;;;9.00;7.53;;;26.10;59.10;;;;;;5052259;28;20156;-41
2022/07/24 07:03:55;;;;;;;9.18;7.45;;;26.10;58.60;;;;;;5049369;28;20037;-41
2022/07/24 07:06:21;;;;;;;8.10;7.30;;;26.20;58.80;;;;;;5050957;28;20037;-44
2022/07/24 07:08:47;;;;;;;9.50;7.32;;;26.40;58.50;;;;;;5050149;28;20170;-41
2022/07/24 07:11:12;;;;;;;8.80;7.05;;;26.40;58.30;;;;;;5048573;28;20131;-41
2022/07/24 07:13:38;;;;;;;11.98;7.30;;;26.60;58.10;;;;;;5051851;28;20037;-41
2022/07/24 07:16:04;;;;;;;7.97;6.88;;;26.60;57.80;;;;;;5050011;28;20048;-42
2022/07/24 07:18:30;;;;;;;8.13;7.28;;;26.70;57.70;;;;;;5049702;28;20045;-41
2022/07/24 07:20:56;;;;;;;9.05;6.80;;;26.70;57.70;;;;;;5052319;28;20029;-41
2022/07/24 07:23:23;;;;;;;10.52;7.65;;;26.80;57.60;;;;;;5048238;28;20052;-41
2022/07/24 07:25:48;;;;;;;9.23;7.30;;;26.80;57.40;;;;;;5052444;28;20025;-41
2022/07/24 07:28:14;;;;;;;8.98;7.07;;;26.80;57.40;;;;;;5051126;28;20112;-46
2022/07/24 07:30:40;;;;;;;7.38;6.20;;;26.90;57.40;;;;;;5051533;28;20047;-40
2022/07/24 07:33:05;;;;;;;7.35;6.63;;;26.80;57.20;;;;;;5050566;28;20087;-40
2022/07/24 07:35:31;;;;;;;8.57;6.95;;;26.90;57.00;;;;;;5052144;28;20136;-42
2022/07/24 07:37:57;;;;;;;7.32;6.60;;;26.90;57.00;;;;;;5052127;28;20478;-40
2022/07/24 07:40:24;;;;;;;9.88;6.90;;;26.90;57.00;;;;;;5049045;28;20021;-43
2022/07/24 07:42:50;;;;;;;8.40;7.15;;;27.00;57.10;;;;;;5053466;28;20552;-41
2022/07/24 07:45:16;;;;;;;8.05;6.25;;;27.00;57.00;;;;;;5050111;28;20053;-44
2022/07/24 07:47:42;;;;;;;8.88;6.53;;;27.00;56.90;;;;;;5048708;28;20032;-41
2022/07/24 07:50:09;;;;;;;7.70;6.07;;;27.00;57.20;;;;;;5051098;28;20024;-40
2022/07/24 07:52:34;;;;;;;10.77;6.60;;;27.00;57.00;;;;;;5051012;28;20709;-45
2022/07/24 07:55:00;;;;;;;7.85;6.03;;;27.10;57.00;;;;;;5049946;28;20055;-49
2022/07/24 07:57:26;;;;;;;8.73;6.50;;;27.10;56.90;;;;;;5048868;28;20025;-43
2022/07/24 07:59:51;;;;;;;9.50;6.20;;;27.10;56.40;;;;;;5051175;28;20043;-41
2022/07/24 08:02:17;;;;;;;8.75;6.28;;;27.00;55.90;;;;;;5049920;28;20078;-41
2022/07/24 08:04:42;;;;;;;8.95;5.35;;;27.00;55.80;;;;;;5050957;28;20044;-41
2022/07/24 08:07:08;;;;;;;7.35;5.95;;;27.00;55.60;;;;;;5050983;28;20021;-41
2022/07/24 08:09:34;;;;;;;6.65;5.88;;;27.00;55.20;;;;;;5051880;28;20045;-41
2022/07/24 08:11:59;;;;;;;6.82;5.88;;;27.00;54.20;;;;;;5051883;28;20048;-43
2022/07/24 08:14:25;;;;;;;6.85;5.88;;;27.00;54.00;;;;;;5048445;28;20103;-44
2022/07/24 08:16:50;;;;;;;7.93;5.45;;;27.00;53.30;;;;;;5049714;28;20497;-41
2022/07/24 08:19:16;;;;;;;7.63;5.47;;;27.00;52.70;;;;;;5051570;28;20070;-43
2022/07/24 08:21:42;;;;;;;7.47;5.53;;;27.00;52.60;;;;;;5041372;28;20505;-43
2022/07/24 08:24:07;;;;;;;7.82;5.10;;;26.90;53.40;;;;;;5055167;28;20041;-42
2022/07/24 08:26:33;;;;;;;6.25;5.18;;;27.00;53.80;;;;;;5051914;28;20033;-44
2022/07/24 08:28:59;;;;;;;7.00;5.55;;;27.00;54.10;;;;;;5050776;28;20032;-42
2022/07/24 08:31:26;;;;;;;5.68;5.05;;;27.00;54.30;;;;;;5046166;28;20037;-43
2022/07/24 08:33:52;;;;;;;7.82;5.38;;;27.00;54.30;;;;;;5044778;28;20394;-42
2022/07/24 08:36:17;;;;;;;5.88;5.20;;;27.00;54.30;;;;;;5051096;28;20033;-42
2022/07/24 08:38:43;;;;;;;6.57;5.63;;;27.10;54.40;;;;;;5051448;28;20025;-42
2022/07/24 08:41:08;;;;;;;6.00;5.28;;;27.00;54.40;;;;;;5050090;28;20108;-42
2022/07/24 08:43:34;;;;;;;7.15;5.22;;;27.00;54.40;;;;;;5051810;28;20036;-43
2022/07/24 08:46:01;;;;;;;5.45;4.95;;;27.10;54.60;;;;;;5049117;28;20351;-42
2022/07/24 08:48:27;;;;;;;6.80;5.28;;;27.00;54.50;;;;;;5048562;28;20037;-43
2022/07/24 08:50:53;;;;;;;5.32;4.82;;;27.10;54.60;;;;;;5050719;28;20043;-43
2022/07/24 08:53:21;;;;;;;7.85;5.07;;;27.10;54.60;;;;;;5050781;28;20040;-42
2022/07/24 08:55:47;;;;;;;8.90;5.50;;;27.10;54.60;;;;;;5050442;28;20425;-42
2022/07/24 08:58:12;;;;;;;7.35;5.50;;;27.00;54.50;;;;;;5050570;28;20025;-42
2022/07/24 09:00:38;;;;;;;5.80;5.28;;;27.00;54.50;;;;;;5051856;28;20549;-42
2022/07/24 09:03:04;;;;;;;6.25;5.32;;;27.10;54.60;;;;;;5048060;28;20390;-52
2022/07/24 09:05:32;;;;;;;5.70;5.10;;;27.10;54.50;;;;;;5050843;28;20082;-42
2022/07/24 09:08:14;;;;;;;4.90;4.28;;;27.00;54.60;;;;;;5050383;28;20045;-42
2022/07/24 09:10:39;;;;;;;;;;;27.10;55.00;;;;;;5048517;28;20082;-46
2022/07/24 09:13:14;;;;;;;5.50;4.88;;;27.10;55.00;;;;;;5050459;28;19913;-51
2022/07/24 09:15:48;;;;;;;8.25;5.10;;;27.10;55.10;;;;;;5049437;28;20029;-42
2022/07/24 09:18:32;;;;;;;6.07;4.28;;;27.10;55.10;;;;;;5049858;28;20033;-42
2022/07/24 09:21:10;;;;;;;6.15;4.63;;;27.10;55.00;;;;;;5051134;28;20389;-42
2022/07/24 09:23:40;;;;;;;7.00;4.93;;;27.10;54.80;;;;;;5048022;28;20059;-42
2022/07/24 09:26:06;;;;;;;5.20;4.65;;;27.10;54.80;;;;;;5047314;28;20462;-52
2022/07/24 09:28:50;;;;;;;5.03;4.50;;;27.10;54.70;;;;;;5049699;28;20037;-43
2022/07/24 09:31:16;;;;;;;4.50;3.95;;;27.10;54.60;;;;;;5052529;28;20037;-43
2022/07/24 09:33:42;;;;;;;5.15;4.35;;;27.10;54.60;;;;;;5054011;28;20083;-42
2022/07/24 09:36:15;;;;;;;5.15;4.65;;;27.10;54.60;;;;;;5050247;28;20032;-52
2022/07/24 09:38:49;;;;;;;5.40;4.90;;;27.10;54.60;;;;;;5050348;28;20425;-43
2022/07/24 09:41:23;;;;;;;4.75;4.25;;;27.10;54.60;;;;;;5047371;28;20033;-42
2022/07/24 09:44:00;;;;;;;5.85;4.80;;;27.10;54.50;;;;;;5050853;28;20423;-44
2022/07/24 09:46:26;;;;;;;5.15;4.63;;;27.10;54.50;;;;;;5047739;28;20024;-42
2022/07/24 09:48:59;;;;;;;6.40;4.75;;;27.10;54.50;;;;;;5054757;28;20048;-42
2022/07/24 09:51:27;;;;;;;5.72;4.70;;;27.10;54.50;;;;;;5054263;28;20045;-42
2022/07/24 09:54:00;;;;;;;4.93;4.43;;;27.10;54.40;;;;;;5052484;28;20040;-43
2022/07/24 09:56:27;;;;;;;5.45;4.50;;;27.10;54.40;;;;;;5053885;28;20041;-42
2022/07/24 09:58:55;;;;;;;5.13;4.25;;;27.10;54.40;;;;;;5049710;28;20025;-42
2022/07/24 10:01:23;;;;;;;4.65;4.03;;;27.10;54.50;;;;;;5053835;28;20530;-43
2022/07/24 10:03:50;;;;;;;6.15;4.88;;;27.10;54.50;;;;;;5052599;28;20029;-42
2022/07/24 10:06:25;;;;;;;5.93;4.22;;;27.20;54.50;;;;;;5053686;28;20032;-43
2022/07/24 10:08:51;;;;;;;4.35;3.95;;;27.20;54.40;;;;;;5049009;28;20052;-43
2022/07/24 10:11:18;;;;;;;5.20;3.97;;;27.20;54.40;;;;;;5044643;28;20034;-47
2022/07/24 10:13:44;;;;;;;5.55;4.05;;;27.20;54.40;;;;;;5043949;28;20018;-42
2022/07/24 10:16:13;;;;;;;6.55;4.97;;;27.20;54.30;;;;;;5046048;28;20052;-52
2022/07/24 10:18:59;;;;;;;4.22;3.83;;;27.20;54.30;;;;;;5050634;28;20114;-42
2022/07/24 10:21:30;;;;;;;5.13;4.50;;;27.10;54.20;;;;;;5052385;28;20048;-44
2022/07/24 10:24:05;;;;;;;;;;;27.20;54.30;;;;;;5044305;28;20026;-45
2022/07/24 10:26:36;;;;;;;4.75;4.03;;;27.20;54.30;;;;;;5046337;28;19909;-43
2022/07/24 10:29:10;;;;;;;4.32;3.67;;;27.20;54.20;;;;;;5044081;28;20032;-47
2022/07/24 10:31:38;;;;;;;5.25;4.68;;;27.20;54.20;;;;;;5045144;28;20044;-46
2022/07/24 10:34:12;;;;;;;4.60;4.20;;;27.20;54.20;;;;;;5049017;28;20094;-44
2022/07/24 10:36:59;;;;;;;4.50;3.97;;;27.20;54.20;;;;;;5051409;28;20033;-44
2022/07/24 10:39:34;;;;;;;5.57;4.68;;;27.20;54.20;;;;;;5051241;28;20086;-45
2022/07/24 10:42:01;;;;;;;5.25;4.70;;;27.20;54.20;;;;;;5044465;28;20171;-42
2022/07/24 10:44:27;;;;;;;4.80;4.30;;;27.20;54.20;;;;;;5052386;28;20035;-46
2022/07/24 10:47:01;;;;;;;4.70;4.00;;;27.30;54.20;;;;;;5042183;28;20032;-43
2022/07/24 10:49:41;;;;;;;6.13;4.97;;;27.30;54.00;;;;;;5046915;28;20032;-46
2022/07/24 10:52:08;;;;;;;4.57;4.07;;;27.40;53.80;;;;;;5038984;28;20042;-48
2022/07/24 10:54:33;;;;;;;4.75;4.25;;;27.50;53.60;;;;;;5051028;28;20056;-43
2022/07/24 10:56:59;;;;;;;5.20;4.65;;;27.50;53.50;;;;;;5051345;28;20041;-43
2022/07/24 10:59:37;;;;;;;5.53;4.50;;;27.60;53.50;;;;;;5052078;28;20021;-47
2022/07/24 11:02:24;;;;;;;4.93;3.72;;;27.60;53.50;;;;;;5052494;28;20045;-42
2022/07/24 11:05:23;;;;;;;5.30;4.40;;;27.70;53.50;;;;;;5050459;28;20037;-42
2022/07/24 11:08:20;;;;;;;5.22;4.22;;;27.70;53.50;;;;;;5044783;28;20136;-43
2022/07/24 11:10:54;;;;;;;5.55;4.60;;;27.70;53.50;;;;;;5049040;28;20386;-42
2022/07/24 11:13:32;;;;;;;5.63;4.35;;;27.70;53.40;;;;;;5047564;28;20037;-42
2022/07/24 11:16:10;;;;;;;5.00;4.00;;;27.80;53.40;;;;;;5050025;28;20037;-42
2022/07/24 11:18:36;;;;;;;4.90;3.85;;;27.80;53.60;;;;;;5051894;28;20044;-42
2022/07/24 11:21:02;;;;;;;4.30;3.90;;;27.80;53.50;;;;;;5050402;28;20120;-44
2022/07/24 11:23:28;;;;;;;4.45;4.05;;;27.80;53.40;;;;;;5051933;28;20410;-46
2022/07/24 11:26:30;;;;;;;4.38;3.80;;;27.80;53.30;;;;;;5048039;28;20040;-44
2022/07/24 11:29:19;;;;;;;4.53;4.13;;;27.80;53.30;;;;;;5050245;28;20029;-44
2022/07/24 11:31:50;;;;;;;5.15;3.70;;;27.80;53.30;;;;;;5052122;28;20575;-43
2022/07/24 11:34:16;;;;;;;4.40;4.00;;;27.80;53.20;;;;;;5050989;28;20028;-44
2022/07/24 11:36:47;;;;;;;5.07;4.10;;;27.90;53.20;;;;;;5051563;28;20047;-44
2022/07/24 11:39:13;;;;;;;5.22;4.50;;;27.80;53.10;;;;;;5047835;28;20056;-53
2022/07/24 11:41:47;;;;;;;4.78;4.13;;;27.90;53.00;;;;;;5051398;28;20060;-43
2022/07/24 11:44:14;;;;;;;4.97;4.20;;;27.80;52.80;;;;;;5051365;28;20017;-51
2022/07/24 11:46:41;;;;;;;4.72;4.05;;;27.90;53.60;;;;;;5049842;28;20046;-42
2022/07/24 11:49:10;;;;;;;4.68;4.15;;;27.80;53.00;;;;;;5051698;28;20388;-41
2022/07/24 11:51:42;;;;;;;5.32;4.25;;;27.80;53.10;;;;;;5050430;28;20822;-42
2022/07/24 11:54:08;;;;;;;4.45;4.03;;;27.80;53.50;;;;;;5049810;28;20040;-42
2022/07/24 11:56:34;;;;;;;4.90;4.22;;;27.80;53.50;;;;;;5048305;28;20094;-42
2022/07/24 11:59:00;;;;;;;4.00;3.60;;;27.90;53.20;;;;;;5051883;28;20489;-42
2022/07/24 12:01:26;;;;;;;4.75;4.25;;;27.90;52.90;;;;;;5050681;28;20114;-48
2022/07/24 12:03:53;;;;;;;4.40;3.50;;;27.90;52.80;;;;;;5050866;28;20100;-44
2022/07/24 12:06:22;;;;;;;4.78;4.03;;;28.00;52.80;;;;;;5049553;28;20037;-41
2022/07/24 12:08:47;;;;;;;5.20;4.25;;;28.00;52.80;;;;;;5050185;28;20048;-42
2022/07/24 12:11:23;;;;;;;4.78;4.28;;;28.00;52.70;;;;;;5050254;28;20107;-52
2022/07/24 12:13:51;;;;;;;4.90;4.07;;;27.90;52.60;;;;;;5047975;28;20025;-45
2022/07/24 12:16:31;;;;;;;4.70;4.13;;;27.90;52.60;;;;;;5043100;28;20068;-47
2022/07/24 12:19:17;;;;;;;4.40;4.00;;;27.90;52.60;;;;;;5046290;28;20106;-42
2022/07/24 12:21:44;;;;;;;6.15;4.28;;;28.00;52.70;;;;;;5031333;28;20904;-46
2022/07/24 12:24:10;;;;;;;4.53;4.13;;;28.00;52.60;;;;;;5051118;28;20488;-43
2022/07/24 12:26:58;;;;;;;4.18;3.78;;;28.00;52.60;;;;;;5050090;28;20041;-43
2022/07/24 12:29:26;;;;;;;4.20;3.80;;;27.90;52.50;;;;;;5046928;28;20382;-46
2022/07/24 12:32:14;;;;;;;6.18;3.88;;;28.00;52.50;;;;;;5050827;28;20041;-44
2022/07/24 12:34:42;;;;;;;7.10;4.18;;;28.00;52.40;;;;;;5050248;28;20032;-42
2022/07/24 12:37:15;;;;;;;4.95;4.28;;;28.00;52.40;;;;;;5051069;28;20064;-42
2022/07/24 12:39:53;;;;;;;5.00;4.50;;;28.00;52.40;;;;;;5049423;28;20033;-43
2022/07/24 12:42:30;;;;;;;4.10;3.70;;;28.00;52.20;;;;;;5049807;28;20037;-46
2022/07/24 12:45:08;;;;;;;4.50;4.07;;;28.10;52.20;;;;;;5050625;28;20398;-43
2022/07/24 12:47:55;;;;;;;4.60;4.05;;;28.10;52.10;;;;;;5046997;28;20037;-42
2022/07/24 12:50:21;;;;;;;6.85;3.95;;;28.10;52.10;;;;;;5046881;28;20393;-42